sensor_id;sensor_type;location;lat;lon;timestamp;temperature;humidity
6930;DHT22;3504;52.616;13.238;2022-10-26T00:04:41;8.77;84.47
6930;DHT22;3504;52.616;13.238;2022-10-26T00:09:41;8.71;84.46
6930;DHT22;3504;52.616;13.238;2022-10-26T00:14:42;8.71;84.18
6930;DHT22;3504;52.616;13.238;2022-10-26T00:19:42;8.69;84.09
6930;DHT22;3504;52.616;13.238;2022-10-26T00:24:43;8.66;84.08
6930;DHT22;3504;52.616;13.238;2022-10-26T00:29:43;8.66;84.27
6930;DHT22;3504;52.616;13.238;2022-10-26T00:34:44;8.66;84.03
6930;DHT22;3504;52.616;13.238;2022-10-26T00:39:44;8.63;84.02
6930;DHT22;3504;52.616;13.238;2022-10-26T00:49:50;8.56;84.10
6930;DHT22;3504;52.616;13.238;2022-10-26T00:54:52;8.49;84.23
6930;DHT22;3504;52.616;13.238;2022-10-26T00:59:55;8.49;84.20
6930;DHT22;3504;52.616;13.238;2022-10-26T01:04:56;8.43;84.16
6930;DHT22;3504;52.616;13.238;2022-10-26T01:09:57;8.36;84.58
6930;DHT22;3504;52.616;13.238;2022-10-26T01:14:58;8.38;84.75
6930;DHT22;3504;52.616;13.238;2022-10-26T01:26:15;8.32;84.40
6930;DHT22;3504;52.616;13.238;2022-10-26T01:31:24;8.30;84.46
6930;DHT22;3504;52.616;13.238;2022-10-26T01:36:36;8.28;84.60
6930;DHT22;3504;52.616;13.238;2022-10-26T01:41:47;8.26;84.39
6930;DHT22;3504;52.616;13.238;2022-10-26T01:46:52;8.26;84.29
6930;DHT22;3504;52.616;13.238;2022-10-26T01:51:53;8.24;84.19
6930;DHT22;3504;52.616;13.238;2022-10-26T01:56:59;8.12;84.21
6930;DHT22;3504;52.616;13.238;2022-10-26T02:08:16;8.02;84.26
6930;DHT22;3504;52.616;13.238;2022-10-26T02:18:47;7.97;84.50
6930;DHT22;3504;52.616;13.238;2022-10-26T02:23:51;7.93;84.67
6930;DHT22;3504;52.616;13.238;2022-10-26T02:28:59;7.93;84.46
6930;DHT22;3504;52.616;13.238;2022-10-26T02:34:05;7.88;84.42
6930;DHT22;3504;52.616;13.238;2022-10-26T02:39:09;7.87;84.20
6930;DHT22;3504;52.616;13.238;2022-10-26T02:44:26;7.83;84.18
6930;DHT22;3504;52.616;13.238;2022-10-26T02:49:28;7.77;83.87
6930;DHT22;3504;52.616;13.238;2022-10-26T02:55:04;7.71;84.21
6930;DHT22;3504;52.616;13.238;2022-10-26T03:00:12;7.70;84.27
6930;DHT22;3504;52.616;13.238;2022-10-26T03:05:23;7.70;84.14
6930;DHT22;3504;52.616;13.238;2022-10-26T03:10:24;7.70;84.18
6930;DHT22;3504;52.616;13.238;2022-10-26T03:15:25;7.63;84.09
6930;DHT22;3504;52.616;13.238;2022-10-26T03:20:25;7.56;84.57
6930;DHT22;3504;52.616;13.238;2022-10-26T03:25:26;7.54;84.66
6930;DHT22;3504;52.616;13.238;2022-10-26T03:30:28;7.51;84.47
6930;DHT22;3504;52.616;13.238;2022-10-26T03:35:29;7.48;84.60
6930;DHT22;3504;52.616;13.238;2022-10-26T03:40:29;7.48;84.53
6930;DHT22;3504;52.616;13.238;2022-10-26T03:45:30;7.46;84.25
6930;DHT22;3504;52.616;13.238;2022-10-26T03:50:30;7.46;84.37
6930;DHT22;3504;52.616;13.238;2022-10-26T03:55:31;7.42;84.35
6930;DHT22;3504;52.616;13.238;2022-10-26T04:00:31;7.33;84.53
6930;DHT22;3504;52.616;13.238;2022-10-26T04:05:31;7.34;84.61
6930;DHT22;3504;52.616;13.238;2022-10-26T04:10:32;7.34;84.48
6930;DHT22;3504;52.616;13.238;2022-10-26T04:15:32;7.34;84.34
6930;DHT22;3504;52.616;13.238;2022-10-26T04:20:33;7.29;84.15
6930;DHT22;3504;52.616;13.238;2022-10-26T04:25:35;7.24;84.37
6930;DHT22;3504;52.616;13.238;2022-10-26T04:30:36;7.26;84.34
6930;DHT22;3504;52.616;13.238;2022-10-26T04:35:37;7.20;84.29
6930;DHT22;3504;52.616;13.238;2022-10-26T04:40:38;7.19;84.39
6930;DHT22;3504;52.616;13.238;2022-10-26T04:45:38;7.15;84.43
6930;DHT22;3504;52.616;13.238;2022-10-26T04:50:40;7.12;84.36
6930;DHT22;3504;52.616;13.238;2022-10-26T04:55:40;7.05;84.41
6930;DHT22;3504;52.616;13.238;2022-10-26T05:00:41;7.01;84.49
6930;DHT22;3504;52.616;13.238;2022-10-26T05:05:41;6.99;84.55
6930;DHT22;3504;52.616;13.238;2022-10-26T05:10:42;6.95;84.85
6930;DHT22;3504;52.616;13.238;2022-10-26T05:15:42;6.93;85.07
6930;DHT22;3504;52.616;13.238;2022-10-26T05:20:43;6.92;84.89
6930;DHT22;3504;52.616;13.238;2022-10-26T05:25:44;6.89;85.14
6930;DHT22;3504;52.616;13.238;2022-10-26T05:30:45;6.88;84.98
6930;DHT22;3504;52.616;13.238;2022-10-26T05:35:46;6.84;85.17
6930;DHT22;3504;52.616;13.238;2022-10-26T05:40:51;6.81;85.57
6930;DHT22;3504;52.616;13.238;2022-10-26T05:45:53;6.88;85.61
6930;DHT22;3504;52.616;13.238;2022-10-26T05:50:53;6.89;85.48
6930;DHT22;3504;52.616;13.238;2022-10-26T05:55:55;6.87;85.26
6930;DHT22;3504;52.616;13.238;2022-10-26T06:01:31;6.87;85.14
6930;DHT22;3504;52.616;13.238;2022-10-26T06:06:53;6.88;85.14
6930;DHT22;3504;52.616;13.238;2022-10-26T06:11:54;6.85;85.52
6930;DHT22;3504;52.616;13.238;2022-10-26T06:22:45;6.87;85.47
6930;DHT22;3504;52.616;13.238;2022-10-26T06:32:57;6.95;85.37
6930;DHT22;3504;52.616;13.238;2022-10-26T06:38:10;6.98;85.63
6930;DHT22;3504;52.616;13.238;2022-10-26T06:43:25;7.03;85.81
6930;DHT22;3504;52.616;13.238;2022-10-26T06:48:28;7.11;85.90
6930;DHT22;3504;52.616;13.238;2022-10-26T06:53:58;7.19;86.20
6930;DHT22;3504;52.616;13.238;2022-10-26T06:59:07;7.29;86.42
6930;DHT22;3504;52.616;13.238;2022-10-26T07:04:08;7.42;86.86
6930;DHT22;3504;52.616;13.238;2022-10-26T07:09:08;7.54;87.17
6930;DHT22;3504;52.616;13.238;2022-10-26T07:14:09;7.74;88.19
6930;DHT22;3504;52.616;13.238;2022-10-26T07:19:09;7.95;88.72
6930;DHT22;3504;52.616;13.238;2022-10-26T07:24:10;8.24;89.92
6930;DHT22;3504;52.616;13.238;2022-10-26T07:29:10;8.49;90.36
6930;DHT22;3504;52.616;13.238;2022-10-26T07:34:11;8.73;90.33
6930;DHT22;3504;52.616;13.238;2022-10-26T07:39:11;9.03;91.06
6930;DHT22;3504;52.616;13.238;2022-10-26T07:44:12;9.30;91.52
6930;DHT22;3504;52.616;13.238;2022-10-26T07:49:12;9.55;91.11
6930;DHT22;3504;52.616;13.238;2022-10-26T07:54:13;9.83;91.12
6930;DHT22;3504;52.616;13.238;2022-10-26T07:59:13;10.13;91.19
6930;DHT22;3504;52.616;13.238;2022-10-26T08:04:14;10.35;91.07
6930;DHT22;3504;52.616;13.238;2022-10-26T08:09:15;10.61;90.74
6930;DHT22;3504;52.616;13.238;2022-10-26T08:14:15;10.91;90.88
6930;DHT22;3504;52.616;13.238;2022-10-26T08:19:16;11.15;89.99
6930;DHT22;3504;52.616;13.238;2022-10-26T08:24:16;11.47;90.21
6930;DHT22;3504;52.616;13.238;2022-10-26T08:29:17;11.71;89.72
6930;DHT22;3504;52.616;13.238;2022-10-26T08:34:17;12.04;89.07
6930;DHT22;3504;52.616;13.238;2022-10-26T08:39:18;12.33;88.64
6930;DHT22;3504;52.616;13.238;2022-10-26T08:44:30;12.57;87.47
6930;DHT22;3504;52.616;13.238;2022-10-26T08:49:42;12.90;87.51
6930;DHT22;3504;52.616;13.238;2022-10-26T08:54:51;13.17;85.71
6930;DHT22;3504;52.616;13.238;2022-10-26T09:00:00;13.46;84.88
6930;DHT22;3504;52.616;13.238;2022-10-26T09:05:02;13.79;84.85
6930;DHT22;3504;52.616;13.238;2022-10-26T09:10:40;14.12;83.26
6930;DHT22;3504;52.616;13.238;2022-10-26T09:16:08;14.41;82.05
6930;DHT22;3504;52.616;13.238;2022-10-26T09:21:42;14.60;81.09
6930;DHT22;3504;52.616;13.238;2022-10-26T09:31:55;15.22;80.26
6930;DHT22;3504;52.616;13.238;2022-10-26T09:36:56;15.44;78.40
6930;DHT22;3504;52.616;13.238;2022-10-26T09:47:41;16.02;77.97
6930;DHT22;3504;52.616;13.238;2022-10-26T09:52:43;16.15;76.33
6930;DHT22;3504;52.616;13.238;2022-10-26T09:57:45;16.28;75.39
6930;DHT22;3504;52.616;13.238;2022-10-26T10:02:57;16.45;74.50
6930;DHT22;3504;52.616;13.238;2022-10-26T10:08:21;16.60;74.62
6930;DHT22;3504;52.616;13.238;2022-10-26T10:13:30;16.74;74.22
6930;DHT22;3504;52.616;13.238;2022-10-26T10:18:32;16.87;72.75
6930;DHT22;3504;52.616;13.238;2022-10-26T10:23:47;16.96;72.41
6930;DHT22;3504;52.616;13.238;2022-10-26T10:28:58;17.18;71.99
6930;DHT22;3504;52.616;13.238;2022-10-26T10:33:59;17.35;70.93
6930;DHT22;3504;52.616;13.238;2022-10-26T10:38:59;17.30;69.81
6930;DHT22;3504;52.616;13.238;2022-10-26T10:49:25;17.04;69.63
6930;DHT22;3504;52.616;13.238;2022-10-26T10:54:32;17.34;70.10
6930;DHT22;3504;52.616;13.238;2022-10-26T11:00:17;17.34;68.25
6930;DHT22;3504;52.616;13.238;2022-10-26T11:05:46;17.49;69.38
6930;DHT22;3504;52.616;13.238;2022-10-26T11:11:02;17.68;68.42
6930;DHT22;3504;52.616;13.238;2022-10-26T11:16:11;17.81;66.88
6930;DHT22;3504;52.616;13.238;2022-10-26T11:21:30;17.75;67.49
6930;DHT22;3504;52.616;13.238;2022-10-26T11:26:35;17.79;67.12
6930;DHT22;3504;52.616;13.238;2022-10-26T11:31:44;17.89;66.66
6930;DHT22;3504;52.616;13.238;2022-10-26T11:36:56;17.79;66.13
6930;DHT22;3504;52.616;13.238;2022-10-26T11:48:27;17.81;66.55
6930;DHT22;3504;52.616;13.238;2022-10-26T11:53:32;17.85;66.54
6930;DHT22;3504;52.616;13.238;2022-10-26T11:58:36;17.89;65.65
6930;DHT22;3504;52.616;13.238;2022-10-26T12:03:46;17.75;65.36
6930;DHT22;3504;52.616;13.238;2022-10-26T12:09:05;17.78;65.98
6930;DHT22;3504;52.616;13.238;2022-10-26T12:14:35;17.72;65.44
6930;DHT22;3504;52.616;13.238;2022-10-26T12:19:54;17.76;66.02
6930;DHT22;3504;52.616;13.238;2022-10-26T12:35:42;17.65;65.85
6930;DHT22;3504;52.616;13.238;2022-10-26T12:40:43;17.64;65.82
6930;DHT22;3504;52.616;13.238;2022-10-26T12:46:31;17.72;66.28
6930;DHT22;3504;52.616;13.238;2022-10-26T12:56:49;17.82;65.45
6930;DHT22;3504;52.616;13.238;2022-10-26T13:07:21;17.74;65.58
6930;DHT22;3504;52.616;13.238;2022-10-26T13:12:23;17.76;65.81
6930;DHT22;3504;52.616;13.238;2022-10-26T13:17:27;17.69;66.29
6930;DHT22;3504;52.616;13.238;2022-10-26T13:22:28;17.75;66.26
6930;DHT22;3504;52.616;13.238;2022-10-26T13:32:35;17.69;66.23
6930;DHT22;3504;52.616;13.238;2022-10-26T13:37:36;17.69;66.90
6930;DHT22;3504;52.616;13.238;2022-10-26T13:42:47;17.78;67.31
6930;DHT22;3504;52.616;13.238;2022-10-26T13:48:00;17.81;67.16
6930;DHT22;3504;52.616;13.238;2022-10-26T14:03:30;17.75;67.70
6930;DHT22;3504;52.616;13.238;2022-10-26T14:08:32;17.71;68.23
6930;DHT22;3504;52.616;13.238;2022-10-26T14:13:33;17.62;68.75
6930;DHT22;3504;52.616;13.238;2022-10-26T14:18:34;17.59;68.84
6930;DHT22;3504;52.616;13.238;2022-10-26T14:28:49;17.45;69.41
6930;DHT22;3504;52.616;13.238;2022-10-26T14:33:51;17.39;69.60
6930;DHT22;3504;52.616;13.238;2022-10-26T14:38:59;17.28;69.96
6930;DHT22;3504;52.616;13.238;2022-10-26T14:44:01;17.17;70.36
6930;DHT22;3504;52.616;13.238;2022-10-26T14:49:02;17.08;70.31
6930;DHT22;3504;52.616;13.238;2022-10-26T14:54:03;17.00;70.74
6930;DHT22;3504;52.616;13.238;2022-10-26T14:59:36;16.93;70.78
6930;DHT22;3504;52.616;13.238;2022-10-26T15:04:40;16.84;71.05
6930;DHT22;3504;52.616;13.238;2022-10-26T15:09:50;16.77;71.62
6930;DHT22;3504;52.616;13.238;2022-10-26T15:14:52;16.63;71.92
6930;DHT22;3504;52.616;13.238;2022-10-26T15:19:54;16.52;72.35
6930;DHT22;3504;52.616;13.238;2022-10-26T15:24:57;16.38;72.95
6930;DHT22;3504;52.616;13.238;2022-10-26T15:30:21;16.28;73.28
6930;DHT22;3504;52.616;13.238;2022-10-26T15:35:28;16.18;73.76
6930;DHT22;3504;52.616;13.238;2022-10-26T15:40:30;15.97;74.72
6930;DHT22;3504;52.616;13.238;2022-10-26T15:45:44;15.84;75.41
6930;DHT22;3504;52.616;13.238;2022-10-26T15:50:47;15.66;76.39
6930;DHT22;3504;52.616;13.238;2022-10-26T15:55:49;15.46;76.37
6930;DHT22;3504;52.616;13.238;2022-10-26T16:00:50;15.35;76.29
6930;DHT22;3504;52.616;13.238;2022-10-26T16:06:01;15.22;76.20
6930;DHT22;3504;52.616;13.238;2022-10-26T16:11:01;15.08;76.55
6930;DHT22;3504;52.616;13.238;2022-10-26T16:16:02;14.99;76.76
6930;DHT22;3504;52.616;13.238;2022-10-26T16:21:03;14.86;77.09
6930;DHT22;3504;52.616;13.238;2022-10-26T16:26:03;14.79;77.67
6930;DHT22;3504;52.616;13.238;2022-10-26T16:31:08;14.72;77.97
6930;DHT22;3504;52.616;13.238;2022-10-26T16:36:10;14.67;78.57
6930;DHT22;3504;52.616;13.238;2022-10-26T16:41:13;14.60;78.57
6930;DHT22;3504;52.616;13.238;2022-10-26T16:46:19;14.54;78.86
6930;DHT22;3504;52.616;13.238;2022-10-26T16:51:23;14.48;79.14
6930;DHT22;3504;52.616;13.238;2022-10-26T16:56:27;14.38;79.50
6930;DHT22;3504;52.616;13.238;2022-10-26T17:01:27;14.34;79.50
6930;DHT22;3504;52.616;13.238;2022-10-26T17:06:28;14.33;79.84
6930;DHT22;3504;52.616;13.238;2022-10-26T17:11:29;14.28;79.96
6930;DHT22;3504;52.616;13.238;2022-10-26T17:16:30;14.28;80.28
6930;DHT22;3504;52.616;13.238;2022-10-26T17:21:33;14.27;80.38
6930;DHT22;3504;52.616;13.238;2022-10-26T17:26:34;14.24;80.57
6930;DHT22;3504;52.616;13.238;2022-10-26T17:31:36;14.21;80.35
6930;DHT22;3504;52.616;13.238;2022-10-26T17:36:36;14.21;80.45
6930;DHT22;3504;52.616;13.238;2022-10-26T17:41:37;14.17;80.69
6930;DHT22;3504;52.616;13.238;2022-10-26T17:46:37;14.14;81.03
6930;DHT22;3504;52.616;13.238;2022-10-26T17:51:38;14.13;80.90
6930;DHT22;3504;52.616;13.238;2022-10-26T17:56:38;14.13;80.84
6930;DHT22;3504;52.616;13.238;2022-10-26T18:01:38;14.14;81.19
6930;DHT22;3504;52.616;13.238;2022-10-26T18:06:39;14.12;81.38
6930;DHT22;3504;52.616;13.238;2022-10-26T18:11:39;14.09;81.65
6930;DHT22;3504;52.616;13.238;2022-10-26T18:16:40;14.06;81.75
6930;DHT22;3504;52.616;13.238;2022-10-26T18:21:41;14.07;81.82
6930;DHT22;3504;52.616;13.238;2022-10-26T18:26:41;14.06;81.86
6930;DHT22;3504;52.616;13.238;2022-10-26T18:31:42;14.07;81.88
6930;DHT22;3504;52.616;13.238;2022-10-26T18:36:43;14.04;81.81
6930;DHT22;3504;52.616;13.238;2022-10-26T18:41:43;14.03;82.07
6930;DHT22;3504;52.616;13.238;2022-10-26T18:46:44;14.04;82.07
6930;DHT22;3504;52.616;13.238;2022-10-26T18:51:47;14.03;82.32
6930;DHT22;3504;52.616;13.238;2022-10-26T18:56:47;14.00;82.38
6930;DHT22;3504;52.616;13.238;2022-10-26T19:01:49;13.95;82.67
6930;DHT22;3504;52.616;13.238;2022-10-26T19:06:49;13.93;82.45
6930;DHT22;3504;52.616;13.238;2022-10-26T19:11:50;13.83;83.17
6930;DHT22;3504;52.616;13.238;2022-10-26T19:16:50;13.79;83.06
6930;DHT22;3504;52.616;13.238;2022-10-26T19:21:51;13.67;83.02
6930;DHT22;3504;52.616;13.238;2022-10-26T19:26:52;13.59;82.88
6930;DHT22;3504;52.616;13.238;2022-10-26T19:31:53;13.46;82.81
6930;DHT22;3504;52.616;13.238;2022-10-26T19:36:54;13.39;82.40
6930;DHT22;3504;52.616;13.238;2022-10-26T19:41:54;13.31;82.88
6930;DHT22;3504;52.616;13.238;2022-10-26T19:46:55;13.21;82.92
6930;DHT22;3504;52.616;13.238;2022-10-26T19:51:55;13.12;82.67
6930;DHT22;3504;52.616;13.238;2022-10-26T19:56:57;13.06;82.44
6930;DHT22;3504;52.616;13.238;2022-10-26T20:01:57;12.99;82.26
6930;DHT22;3504;52.616;13.238;2022-10-26T20:06:59;12.94;82.43
6930;DHT22;3504;52.616;13.238;2022-10-26T20:12:00;12.81;82.53
6930;DHT22;3504;52.616;13.238;2022-10-26T20:17:00;12.77;82.70
6930;DHT22;3504;52.616;13.238;2022-10-26T20:22:01;12.70;82.42
6930;DHT22;3504;52.616;13.238;2022-10-26T20:27:02;12.59;82.65
6930;DHT22;3504;52.616;13.238;2022-10-26T20:32:02;12.52;82.79
6930;DHT22;3504;52.616;13.238;2022-10-26T20:37:03;12.42;82.82
6930;DHT22;3504;52.616;13.238;2022-10-26T20:42:04;12.36;82.79
6930;DHT22;3504;52.616;13.238;2022-10-26T20:47:05;12.26;82.67
6930;DHT22;3504;52.616;13.238;2022-10-26T20:52:18;12.19;82.64
6930;DHT22;3504;52.616;13.238;2022-10-26T20:57:26;12.11;83.02
6930;DHT22;3504;52.616;13.238;2022-10-26T21:02:29;12.06;82.87
6930;DHT22;3504;52.616;13.238;2022-10-26T21:07:29;11.97;82.70
6930;DHT22;3504;52.616;13.238;2022-10-26T21:12:30;11.88;82.88
6930;DHT22;3504;52.616;13.238;2022-10-26T21:17:30;11.84;83.45
6930;DHT22;3504;52.616;13.238;2022-10-26T21:22:33;11.73;83.38
6930;DHT22;3504;52.616;13.238;2022-10-26T21:27:34;11.70;83.11
6930;DHT22;3504;52.616;13.238;2022-10-26T21:32:35;11.66;82.85
6930;DHT22;3504;52.616;13.238;2022-10-26T21:37:35;11.58;83.12
6930;DHT22;3504;52.616;13.238;2022-10-26T21:42:36;11.54;83.11
6930;DHT22;3504;52.616;13.238;2022-10-26T21:47:36;11.46;82.89
6930;DHT22;3504;52.616;13.238;2022-10-26T21:52:37;11.37;83.03
6930;DHT22;3504;52.616;13.238;2022-10-26T21:57:37;11.30;83.03
6930;DHT22;3504;52.616;13.238;2022-10-26T22:02:38;11.23;83.27
6930;DHT22;3504;52.616;13.238;2022-10-26T22:07:38;11.17;83.06
6930;DHT22;3504;52.616;13.238;2022-10-26T22:12:39;11.13;83.07
6930;DHT22;3504;52.616;13.238;2022-10-26T22:17:39;11.09;83.12
6930;DHT22;3504;52.616;13.238;2022-10-26T22:22:40;11.03;83.17
6930;DHT22;3504;52.616;13.238;2022-10-26T22:27:40;11.02;83.31
6930;DHT22;3504;52.616;13.238;2022-10-26T22:32:41;10.97;83.22
6930;DHT22;3504;52.616;13.238;2022-10-26T22:37:44;10.92;83.26
6930;DHT22;3504;52.616;13.238;2022-10-26T22:42:45;10.91;83.12
6930;DHT22;3504;52.616;13.238;2022-10-26T22:47:45;10.86;83.37
6930;DHT22;3504;52.616;13.238;2022-10-26T22:52:46;10.84;83.45
6930;DHT22;3504;52.616;13.238;2022-10-26T22:57:46;10.79;83.95
6930;DHT22;3504;52.616;13.238;2022-10-26T23:02:47;10.79;83.59
6930;DHT22;3504;52.616;13.238;2022-10-26T23:07:47;10.69;83.51
6930;DHT22;3504;52.616;13.238;2022-10-26T23:12:49;10.68;83.80
6930;DHT22;3504;52.616;13.238;2022-10-26T23:17:49;10.65;83.78
6930;DHT22;3504;52.616;13.238;2022-10-26T23:22:52;10.61;83.58
6930;DHT22;3504;52.616;13.238;2022-10-26T23:27:53;10.55;83.69
6930;DHT22;3504;52.616;13.238;2022-10-26T23:32:54;10.54;83.50
6930;DHT22;3504;52.616;13.238;2022-10-26T23:37:58;10.48;83.55
6930;DHT22;3504;52.616;13.238;2022-10-26T23:42:58;10.48;83.81
6930;DHT22;3504;52.616;13.238;2022-10-26T23:47:59;10.42;83.78
6930;DHT22;3504;52.616;13.238;2022-10-26T23:52:59;10.38;83.95
6930;DHT22;3504;52.616;13.238;2022-10-26T23:58:00;10.33;84.03
